Time;durP1;ratioP1;P1;durP2;ratioP2;P2;SDS_P1;SDS_P2;PMS_P1;PMS_P2;Temp;Humidity;BMP_temperature;BMP_pressure;BME280_temperature;BME280_humidity;BME280_pressure;Samples;Min_cycle;Max_cycle;Signal;HPM_P1;HPM_P2
2023/05/10 00:00:24;;;;;;;13.23;10.98;;;13.60;99.90;;;;;;5023058;28;20033;-82
2023/05/10 00:02:50;;;;;;;11.13;10.00;;;13.50;99.90;;;;;;5022165;28;20045;-82
2023/05/10 00:05:15;;;;;;;12.48;10.32;;;13.50;99.90;;;;;;5032931;28;20033;-83
2023/05/10 00:07:44;;;;;;;12.40;10.00;;;13.50;99.90;;;;;;5022216;28;20472;-82
2023/05/10 00:10:10;;;;;;;11.60;10.32;;;13.40;99.90;;;;;;5030974;28;20068;-82
2023/05/10 00:12:36;;;;;;;11.80;10.38;;;13.40;99.90;;;;;;5023169;28;20140;-83
2023/05/10 00:15:02;;;;;;;11.73;9.93;;;13.40;99.90;;;;;;5035031;28;20128;-82
2023/05/10 00:17:29;;;;;;;11.20;9.73;;;13.30;99.90;;;;;;5011694;28;20048;-82
2023/05/10 00:19:54;;;;;;;12.32;9.77;;;13.30;99.90;;;;;;5031342;28;20463;-82
2023/05/10 00:22:20;;;;;;;15.70;10.68;;;13.30;99.90;;;;;;5023888;28;20041;-82
2023/05/10 00:24:46;;;;;;;12.75;10.88;;;13.30;99.90;;;;;;5018472;28;20029;-82
2023/05/10 00:27:11;;;;;;;11.60;10.38;;;13.30;99.90;;;;;;5034906;28;20045;-82
2023/05/10 00:29:37;;;;;;;12.68;11.05;;;13.30;99.90;;;;;;5022626;28;20041;-82
2023/05/10 00:32:03;;;;;;;13.55;11.25;;;13.30;99.90;;;;;;5021757;28;20103;-82
2023/05/10 00:34:28;;;;;;;12.75;10.80;;;13.30;99.90;;;;;;5018336;28;20159;-82
2023/05/10 00:36:54;;;;;;;14.25;10.77;;;13.30;99.90;;;;;;5018143;28;20041;-82
2023/05/10 00:39:20;;;;;;;12.77;10.63;;;13.30;99.90;;;;;;5030835;28;20061;-82
2023/05/10 00:41:46;;;;;;;13.50;11.10;;;13.40;99.90;;;;;;5020849;28;20051;-82
2023/05/10 00:44:11;;;;;;;18.98;11.68;;;13.40;99.90;;;;;;5018906;28;20120;-82
2023/05/10 00:46:37;;;;;;;12.25;10.23;;;13.40;99.90;;;;;;5034876;28;20064;-82
2023/05/10 00:49:04;;;;;;;13.48;10.70;;;13.40;99.90;;;;;;5030728;28;20049;-81
2023/05/10 00:51:31;;;;;;;13.93;10.68;;;13.40;99.90;;;;;;5019227;28;20064;-82
2023/05/10 00:53:57;;;;;;;12.45;10.63;;;13.40;99.90;;;;;;5049184;28;20040;-81
2023/05/10 00:56:24;;;;;;;13.40;10.82;;;13.40;99.90;;;;;;5031460;28;20037;-82
2023/05/10 00:58:50;;;;;;;16.90;11.32;;;13.40;99.90;;;;;;5019849;28;20128;-82
2023/05/10 01:01:15;;;;;;;13.70;11.40;;;13.40;99.90;;;;;;5020316;28;20116;-82
2023/05/10 01:03:41;;;;;;;13.07;10.25;;;13.40;99.90;;;;;;5021431;28;20052;-82
2023/05/10 01:06:07;;;;;;;12.90;10.32;;;13.40;99.90;;;;;;5021698;28;20053;-82
2023/05/10 01:08:33;;;;;;;11.95;9.70;;;13.30;99.90;;;;;;5019574;28;20045;-82
2023/05/10 01:10:59;;;;;;;13.00;9.52;;;13.30;99.90;;;;;;5033799;28;20041;-82
2023/05/10 01:13:33;;;;;;;10.80;9.15;;;13.30;99.90;;;;;;5017337;28;20404;-82
2023/05/10 01:16:01;;;;;;;10.88;8.93;;;13.30;99.90;;;;;;5019917;28;20033;-82
2023/05/10 01:18:28;;;;;;;10.85;9.30;;;13.30;99.90;;;;;;5032007;28;20037;-82
2023/05/10 01:21:21;;;;;;;13.25;10.52;;;13.30;99.90;;;;;;5034243;28;20041;-82
2023/05/10 01:24:05;;;;;;;11.07;9.60;;;13.30;99.90;;;;;;5017938;28;20421;-82
2023/05/10 01:27:04;;;;;;;12.27;9.70;;;13.30;99.90;;;;;;5024851;28;20069;-82
2023/05/10 01:29:58;;;;;;;10.70;9.15;;;13.30;99.90;;;;;;5036897;28;20045;-82
2023/05/10 01:32:34;;;;;;;13.88;9.80;;;13.30;99.90;;;;;;5018815;28;20037;-82
2023/05/10 01:35:09;;;;;;;11.70;9.43;;;13.30;99.90;;;;;;5037374;28;20088;-82
2023/05/10 01:37:43;;;;;;;11.93;9.07;;;13.30;99.90;;;;;;5036383;28;20103;-82
2023/05/10 01:40:15;;;;;;;11.10;9.90;;;13.40;99.90;;;;;;5032822;28;20110;-82
2023/05/10 01:42:49;;;;;;;11.98;9.82;;;13.30;99.90;;;;;;5023867;28;20492;-82
2023/05/10 01:45:27;;;;;;;11.32;9.65;;;13.30;99.90;;;;;;5024024;28;20051;-83
2023/05/10 01:48:06;;;;;;;12.05;9.63;;;13.30;99.90;;;;;;5023557;28;20083;-82
2023/05/10 01:50:34;;;;;;;13.43;10.23;;;13.30;99.90;;;;;;5023447;28;20043;-82
2023/05/10 01:53:02;;;;;;;11.07;9.18;;;13.30;99.90;;;;;;5035056;28;20049;-82
2023/05/10 01:55:32;;;;;;;11.65;10.00;;;13.20;99.90;;;;;;5035992;28;20045;-82
2023/05/10 01:58:13;;;;;;;12.55;10.48;;;13.20;99.90;;;;;;5022206;28;20150;-82
2023/05/10 02:00:47;;;;;;;11.10;9.90;;;13.10;99.90;;;;;;5021723;28;20341;-82
2023/05/10 02:03:14;;;;;;;12.55;10.32;;;13.00;99.90;;;;;;5023301;28;20037;-82
2023/05/10 02:05:44;;;;;;;11.57;10.18;;;13.00;99.90;;;;;;5020067;28;20048;-82
2023/05/10 02:08:15;;;;;;;10.50;9.35;;;13.00;99.90;;;;;;5021056;28;20044;-81
2023/05/10 02:10:43;;;;;;;12.55;10.25;;;13.00;99.90;;;;;;5023345;28;20045;-82
2023/05/10 02:13:09;;;;;;;12.48;10.50;;;13.00;99.90;;;;;;5024277;28;20110;-82
2023/05/10 02:15:36;;;;;;;12.93;10.63;;;13.00;99.90;;;;;;5021091;28;20040;-82
2023/05/10 02:18:05;;;;;;;13.07;10.68;;;13.00;99.90;;;;;;5022067;28;20047;-81
2023/05/10 02:20:32;;;;;;;13.60;11.07;;;13.00;99.90;;;;;;5021082;28;20057;-82
2023/05/10 02:22:59;;;;;;;13.68;11.00;;;13.00;99.90;;;;;;5021319;28;20037;-82
2023/05/10 02:25:25;;;;;;;16.48;11.48;;;13.00;99.90;;;;;;5018921;28;20071;-82
2023/05/10 02:27:54;;;;;;;15.85;10.95;;;13.00;99.90;;;;;;5023716;28;20033;-81
2023/05/10 02:30:21;;;;;;;13.55;10.90;;;13.00;99.90;;;;;;5019558;28;20163;-82
2023/05/10 02:32:48;;;;;;;13.63;11.02;;;12.90;99.90;;;;;;5034668;28;20500;-82
2023/05/10 02:35:15;;;;;;;17.63;11.55;;;12.90;99.90;;;;;;5034177;28;20044;-82
2023/05/10 02:37:42;;;;;;;13.57;10.93;;;12.90;99.90;;;;;;5036602;28;20109;-82
2023/05/10 02:40:10;;;;;;;14.02;10.98;;;12.90;99.90;;;;;;5019230;28;20503;-82
2023/05/10 02:42:38;;;;;;;15.43;11.63;;;12.90;99.90;;;;;;5031672;28;20099;-82
2023/05/10 02:45:10;;;;;;;14.02;11.30;;;12.90;99.90;;;;;;5033834;28;20118;-82
2023/05/10 02:47:39;;;;;;;15.52;11.70;;;12.90;99.90;;;;;;5034654;28;20124;-82
2023/05/10 02:50:05;;;;;;;16.98;12.25;;;13.00;99.90;;;;;;5032742;28;20041;-82
2023/05/10 02:52:47;;;;;;;16.85;12.43;;;13.00;99.90;;;;;;5034574;28;20546;-81
2023/05/10 02:55:15;;;;;;;17.05;12.73;;;12.90;99.90;;;;;;5020165;28;20049;-82
2023/05/10 02:57:48;;;;;;;18.33;13.05;;;13.00;99.90;;;;;;5024045;28;20040;-82
2023/05/10 03:00:14;;;;;;;18.15;12.88;;;12.90;99.90;;;;;;5028488;28;20049;-82
2023/05/10 03:02:40;;;;;;;19.23;13.13;;;12.90;99.90;;;;;;5016925;28;20458;-82
2023/05/10 03:05:06;;;;;;;20.30;13.63;;;12.90;99.90;;;;;;5033278;28;20044;-82
2023/05/10 03:07:33;;;;;;;20.95;14.15;;;12.90;99.90;;;;;;5033047;28;20033;-82
2023/05/10 03:09:59;;;;;;;20.90;13.70;;;12.90;99.90;;;;;;5034960;28;20153;-82
2023/05/10 03:12:49;;;;;;;22.48;12.85;;;12.90;99.90;;;;;;5033156;28;20037;-82
2023/05/10 03:15:51;;;;;;;23.58;13.48;;;12.90;99.90;;;;;;5025063;28;20422;-82
2023/05/10 03:18:23;;;;;;;23.95;14.40;;;12.90;99.90;;;;;;4929100;28;20042;-82
2023/05/10 03:21:05;;;;;;;24.27;14.98;;;12.90;99.90;;;;;;5024794;28;20075;-83
2023/05/10 03:23:43;;;;;;;22.48;14.63;;;12.90;99.90;;;;;;5026533;28;20049;-83
2023/05/10 03:26:08;;;;;;;26.60;15.30;;;12.90;99.90;;;;;;5034895;28;20052;-82
2023/05/10 03:28:36;;;;;;;24.17;15.10;;;12.90;99.90;;;;;;5031159;28;20159;-82
2023/05/10 03:31:04;;;;;;;24.98;15.30;;;12.90;99.90;;;;;;5020197;28;20095;-82
2023/05/10 03:33:29;;;;;;;25.27;15.10;;;12.90;99.90;;;;;;5031615;28;20048;-83
2023/05/10 03:35:55;;;;;;;24.77;15.80;;;12.90;99.90;;;;;;5023152;28;20049;-82
2023/05/10 03:38:20;;;;;;;25.63;15.60;;;12.90;99.90;;;;;;5029889;28;20152;-83
2023/05/10 03:40:46;;;;;;;27.42;15.80;;;12.90;99.90;;;;;;5022297;28;20036;-83
2023/05/10 03:43:12;;;;;;;29.15;16.25;;;12.90;99.90;;;;;;5033538;28;20045;-83
2023/05/10 03:45:37;;;;;;;26.27;15.63;;;12.90;99.90;;;;;;5020563;28;20078;-83
2023/05/10 03:48:03;;;;;;;24.55;15.35;;;12.90;99.90;;;;;;5032261;28;20052;-83
2023/05/10 03:50:29;;;;;;;26.60;15.43;;;12.90;99.90;;;;;;5035257;28;20102;-83
2023/05/10 03:52:54;;;;;;;26.35;15.48;;;12.90;99.90;;;;;;5021359;28;20087;-82
2023/05/10 03:55:23;;;;;;;27.33;15.80;;;12.90;99.90;;;;;;5034987;28;20049;-83
2023/05/10 03:57:53;;;;;;;26.02;15.65;;;12.90;99.90;;;;;;5030633;28;20033;-83
2023/05/10 04:00:19;;;;;;;28.88;16.10;;;12.90;99.90;;;;;;5020225;28;20072;-84
2023/05/10 04:02:45;;;;;;;23.92;15.70;;;12.90;99.90;;;;;;5032903;28;20080;-83
2023/05/10 04:05:10;;;;;;;22.40;14.60;;;12.90;99.90;;;;;;5018328;28;20037;-82
2023/05/10 04:07:36;;;;;;;23.08;14.85;;;12.90;99.90;;;;;;5019419;28;20118;-83
2023/05/10 04:10:02;;;;;;;21.90;15.52;;;12.90;99.90;;;;;;5018725;28;20114;-83
2023/05/10 04:12:27;;;;;;;23.70;14.25;;;12.90;99.90;;;;;;5022608;28;20033;-83
2023/05/10 04:14:53;;;;;;;21.40;13.85;;;12.90;99.90;;;;;;5015210;28;20091;-83
2023/05/10 04:17:19;;;;;;;21.55;13.10;;;12.90;99.90;;;;;;5021736;28;20404;-84
2023/05/10 04:19:44;;;;;;;19.35;13.10;;;12.90;99.90;;;;;;5022733;28;20456;-83
2023/05/10 04:22:10;;;;;;;19.30;12.52;;;12.90;99.90;;;;;;5032141;28;20131;-83
2023/05/10 04:24:36;;;;;;;16.17;12.35;;;12.90;99.90;;;;;;5034485;28;20033;-84
2023/05/10 04:27:01;;;;;;;19.98;11.98;;;12.90;99.90;;;;;;5036236;28;20488;-84
2023/05/10 04:29:27;;;;;;;15.60;11.40;;;12.80;99.90;;;;;;5018212;28;20044;-84
2023/05/10 04:31:56;;;;;;;18.30;12.10;;;12.80;99.90;;;;;;5034592;28;20037;-83
2023/05/10 04:34:22;;;;;;;16.83;11.10;;;12.80;99.90;;;;;;5032558;28;20063;-83
2023/05/10 04:36:47;;;;;;;18.92;11.20;;;12.80;99.90;;;;;;5019548;28;20045;-83
2023/05/10 04:39:13;;;;;;;17.45;11.25;;;12.90;99.90;;;;;;5032089;28;20544;-83
2023/05/10 04:41:39;;;;;;;16.08;11.27;;;12.80;99.90;;;;;;5021427;28;20049;-82
2023/05/10 04:44:05;;;;;;;15.77;10.50;;;12.80;99.90;;;;;;5022888;28;20491;-82
2023/05/10 04:46:30;;;;;;;16.20;10.75;;;12.80;99.90;;;;;;5019847;28;20128;-82
2023/05/10 04:48:59;;;;;;;16.40;11.23;;;12.90;99.90;;;;;;5031560;28;20072;-82
2023/05/10 04:51:25;;;;;;;17.73;12.13;;;12.80;99.90;;;;;;5022704;28;20037;-82
2023/05/10 04:53:50;;;;;;;15.02;11.10;;;12.80;99.90;;;;;;5032796;28;20037;-82
2023/05/10 04:56:16;;;;;;;15.27;11.13;;;12.90;99.90;;;;;;5021042;28;20528;-82
2023/05/10 04:58:42;;;;;;;17.67;11.00;;;12.80;99.90;;;;;;5019431;28;20025;-82
2023/05/10 05:01:09;;;;;;;15.73;11.23;;;12.80;99.90;;;;;;5019809;28;20172;-82
2023/05/10 05:03:35;;;;;;;13.43;10.70;;;12.80;99.90;;;;;;5013558;28;20052;-82
2023/05/10 05:06:01;;;;;;;12.10;10.48;;;12.90;99.90;;;;;;5019328;28;20068;-82
2023/05/10 05:08:26;;;;;;;13.25;10.88;;;12.80;99.90;;;;;;5020052;28;20091;-82
2023/05/10 05:10:52;;;;;;;13.13;10.32;;;12.80;99.90;;;;;;5031724;28;20786;-82
2023/05/10 05:13:18;;;;;;;11.80;9.50;;;12.70;99.90;;;;;;5017370;28;20094;-82
2023/05/10 05:15:44;;;;;;;13.25;9.68;;;12.80;99.90;;;;;;5020618;28;20683;-81
2023/05/10 05:18:10;;;;;;;10.82;8.98;;;12.80;99.90;;;;;;5035822;28;20073;-82
2023/05/10 05:20:37;;;;;;;10.00;8.18;;;12.70;99.90;;;;;;5033832;28;20484;-82
2023/05/10 05:23:03;;;;;;;9.27;8.10;;;12.70;99.90;;;;;;5019400;28;20041;-82
2023/05/10 05:25:29;;;;;;;9.98;7.47;;;12.80;99.90;;;;;;5019350;28;20447;-82
2023/05/10 05:27:54;;;;;;;10.07;7.90;;;12.80;99.90;;;;;;5030309;28;20424;-82
2023/05/10 05:30:20;;;;;;;9.88;7.70;;;12.80;99.90;;;;;;5020589;28;20360;-82
2023/05/10 05:32:47;;;;;;;10.98;8.02;;;12.80;99.90;;;;;;5031861;28;20119;-82
2023/05/10 05:35:12;;;;;;;9.65;7.72;;;12.80;99.90;;;;;;5021499;28;20029;-82
2023/05/10 05:37:39;;;;;;;8.27;7.13;;;12.80;99.90;;;;;;5033700;28;20606;-82
2023/05/10 05:40:05;;;;;;;9.75;6.40;;;12.80;99.90;;;;;;5019198;28;20037;-82
2023/05/10 05:42:31;;;;;;;6.40;5.38;;;12.80;99.90;;;;;;5018524;28;20040;-82
2023/05/10 05:45:00;;;;;;;5.70;4.80;;;12.80;99.90;;;;;;5016418;28;20039;-83
2023/05/10 05:47:25;;;;;;;6.43;5.20;;;12.80;99.90;;;;;;5032167;28;20044;-82
2023/05/10 05:49:51;;;;;;;6.18;4.60;;;12.80;99.90;;;;;;5014213;28;20068;-82
2023/05/10 05:52:17;;;;;;;4.97;4.47;;;12.80;99.90;;;;;;5027719;28;20131;-82
2023/05/10 05:54:43;;;;;;;4.88;4.38;;;12.80;99.90;;;;;;5020246;28;20033;-83
2023/05/10 05:57:08;;;;;;;3.78;3.35;;;12.80;99.90;;;;;;5031332;28;20044;-83
2023/05/10 05:59:34;;;;;;;3.95;3.17;;;12.80;99.90;;;;;;5030947;28;20533;-83
2023/05/10 06:02:00;;;;;;;3.75;3.13;;;12.80;99.90;;;;;;5015757;28;20039;-83
2023/05/10 06:04:26;;;;;;;4.20;2.63;;;12.80;99.90;;;;;;5019745;28;20202;-83
2023/05/10 06:06:52;;;;;;;3.22;2.55;;;12.70;99.90;;;;;;5023041;28;20128;-83
2023/05/10 06:09:17;;;;;;;2.97;2.47;;;12.80;99.90;;;;;;5030266;28;20048;-83
2023/05/10 06:11:43;;;;;;;3.05;2.70;;;12.80;99.90;;;;;;5025926;28;20222;-83
2023/05/10 06:14:09;;;;;;;3.38;2.50;;;12.80;99.90;;;;;;5021044;28;20072;-83
2023/05/10 06:16:34;;;;;;;4.22;2.70;;;12.80;99.90;;;;;;5018404;28;20703;-83
2023/05/10 06:19:00;;;;;;;3.42;2.85;;;12.80;99.90;;;;;;5035847;28;20132;-83
2023/05/10 06:21:26;;;;;;;3.13;2.50;;;12.80;99.90;;;;;;5024715;28;20041;-83
2023/05/10 06:23:52;;;;;;;3.20;2.25;;;12.90;99.90;;;;;;5024073;28;20125;-83
2023/05/10 06:26:17;;;;;;;3.35;2.58;;;12.80;99.90;;;;;;5019452;28;20182;-83
2023/05/10 06:28:43;;;;;;;2.30;2.00;;;12.80;99.90;;;;;;5024749;28;20298;-83
2023/05/10 06:31:08;;;;;;;2.00;1.80;;;12.80;99.90;;;;;;5024290;28;20507;-83
2023/05/10 06:33:35;;;;;;;1.95;1.60;;;12.80;99.90;;;;;;5034979;28;20102;-83
2023/05/10 06:36:00;;;;;;;1.70;1.60;;;12.80;99.90;;;;;;5023644;28;20128;-83
2023/05/10 06:38:26;;;;;;;2.38;1.90;;;12.80;99.90;;;;;;5017297;28;20148;-83
2023/05/10 06:40:52;;;;;;;2.90;2.00;;;12.80;99.90;;;;;;5025332;28;20494;-83
2023/05/10 06:43:18;;;;;;;4.57;2.53;;;12.70;99.90;;;;;;5024311;28;20091;-84
2023/05/10 06:45:44;;;;;;;2.85;2.53;;;12.70;99.90;;;;;;5036727;28;20462;-83
2023/05/10 06:48:09;;;;;;;3.22;2.80;;;12.80;99.90;;;;;;5033304;28;20124;-84
2023/05/10 06:50:35;;;;;;;3.58;2.72;;;12.80;99.90;;;;;;5018578;28;20032;-83
2023/05/10 06:53:04;;;;;;;3.35;2.42;;;12.80;99.90;;;;;;5018696;28;20055;-83
2023/05/10 06:55:29;;;;;;;2.38;1.90;;;12.70;99.90;;;;;;5022503;28;20044;-83
2023/05/10 06:57:55;;;;;;;3.03;1.90;;;12.80;99.90;;;;;;5031607;28;20038;-83
2023/05/10 07:00:21;;;;;;;2.30;1.80;;;12.80;99.90;;;;;;5024879;28;20037;-84
2023/05/10 07:02:47;;;;;;;3.67;1.85;;;12.70;99.90;;;;;;5018138;28;20550;-83
2023/05/10 07:05:13;;;;;;;1.90;1.73;;;12.70;99.90;;;;;;5035130;28;20051;-83
2023/05/10 07:07:39;;;;;;;1.60;1.50;;;12.70;99.90;;;;;;5037840;28;20068;-83
2023/05/10 07:10:05;;;;;;;2.00;1.80;;;12.70;99.90;;;;;;5034274;28;20131;-83
2023/05/10 07:12:31;;;;;;;1.45;1.35;;;12.70;99.90;;;;;;5022953;28;20052;-83
2023/05/10 07:14:57;;;;;;;1.83;1.60;;;12.80;99.90;;;;;;5034680;28;20036;-83
2023/05/10 07:17:22;;;;;;;1.40;1.30;;;12.70;99.90;;;;;;5016207;28;20485;-83
2023/05/10 07:19:48;;;;;;;2.13;1.10;;;12.80;99.90;;;;;;5022400;28;20687;-83
2023/05/10 07:22:15;;;;;;;1.30;1.20;;;12.80;99.90;;;;;;5018639;28;20500;-83
2023/05/10 07:24:41;;;;;;;1.20;1.10;;;12.80;99.90;;;;;;5034645;28;20637;-83
2023/05/10 07:27:06;;;;;;;1.20;1.10;;;12.90;99.90;;;;;;5031003;28;20124;-84
2023/05/10 07:29:33;;;;;;;1.33;1.20;;;13.00;99.90;;;;;;5033089;28;20034;-83
2023/05/10 07:31:58;;;;;;;1.25;1.15;;;13.00;99.90;;;;;;5020249;28;20183;-83
2023/05/10 07:34:24;;;;;;;1.20;1.10;;;13.10;99.90;;;;;;5013893;28;20616;-83
2023/05/10 07:36:50;;;;;;;2.78;1.20;;;13.20;99.90;;;;;;5035688;28;20055;-84
2023/05/10 07:39:16;;;;;;;1.33;1.20;;;13.20;99.90;;;;;;5033764;28;20060;-83
2023/05/10 07:41:42;;;;;;;1.38;1.27;;;13.30;99.90;;;;;;5022949;28;20044;-83
2023/05/10 07:44:07;;;;;;;1.52;1.42;;;13.30;99.90;;;;;;5016206;28;20044;-84
2023/05/10 07:46:33;;;;;;;2.00;1.80;;;13.30;99.90;;;;;;5033259;28;20029;-84
2023/05/10 07:48:59;;;;;;;2.17;1.98;;;13.20;99.90;;;;;;5023925;28;20049;-84
2023/05/10 07:51:25;;;;;;;2.65;2.20;;;13.10;99.90;;;;;;5020721;28;20045;-84
2023/05/10 07:53:50;;;;;;;3.42;2.83;;;13.10;99.90;;;;;;5017780;28;20480;-84
2023/05/10 07:56:29;;;;;;;3.22;2.92;;;13.00;99.90;;;;;;5035345;28;20064;-85
2023/05/10 07:58:56;;;;;;;3.85;3.25;;;12.90;99.90;;;;;;5018928;28;20290;-84
2023/05/10 08:01:22;;;;;;;3.75;3.42;;;13.00;99.90;;;;;;5038664;28;20045;-84
2023/05/10 08:03:48;;;;;;;3.78;3.47;;;13.00;99.90;;;;;;5022882;28;20484;-84
2023/05/10 08:06:18;;;;;;;3.75;3.38;;;13.10;99.90;;;;;;5023438;28;20037;-84
2023/05/10 08:08:49;;;;;;;3.75;3.45;;;13.00;99.90;;;;;;5030618;28;20042;-84
2023/05/10 08:11:15;;;;;;;3.92;3.53;;;12.90;99.90;;;;;;5036853;28;20059;-84
2023/05/10 08:13:41;;;;;;;4.75;4.22;;;13.00;99.90;;;;;;5022167;28;20395;-83
2023/05/10 08:16:07;;;;;;;4.05;3.65;;;13.00;99.90;;;;;;5031502;28;20043;-84
2023/05/10 08:18:35;;;;;;;4.53;4.13;;;13.10;99.90;;;;;;5034207;28;20028;-84
2023/05/10 08:21:01;;;;;;;4.78;4.38;;;13.00;99.90;;;;;;5030727;28;20512;-84
2023/05/10 08:23:26;;;;;;;5.57;5.07;;;13.00;99.90;;;;;;5030893;28;20041;-84
2023/05/10 08:25:52;;;;;;;5.93;5.15;;;13.10;99.90;;;;;;5029787;28;20033;-84
2023/05/10 08:28:18;;;;;;;6.88;4.93;;;13.20;99.90;;;;;;5022335;28;20053;-84
2023/05/10 08:30:43;;;;;;;6.35;5.57;;;13.20;99.90;;;;;;5023705;28;20036;-85
2023/05/10 08:33:09;;;;;;;5.93;5.10;;;13.10;99.90;;;;;;5017545;28;20033;-84
2023/05/10 08:35:35;;;;;;;5.65;4.78;;;13.00;99.90;;;;;;5021042;28;20033;-84
2023/05/10 08:38:04;;;;;;;5.60;5.00;;;13.10;99.90;;;;;;5016353;28;20132;-84
2023/05/10 08:40:29;;;;;;;5.70;4.60;;;13.00;99.90;;;;;;5032692;28;20045;-83
2023/05/10 08:43:22;;;;;;;6.75;5.25;;;13.10;99.90;;;;;;5023354;28;20045;-85
2023/05/10 08:45:49;;;;;;;5.75;4.80;;;13.10;99.90;;;;;;5019203;28;20041;-84
2023/05/10 08:48:16;;;;;;;7.60;4.82;;;13.00;99.90;;;;;;5029577;28;20037;-83
2023/05/10 08:50:42;;;;;;;5.25;4.75;;;13.10;99.90;;;;;;5017512;28;20048;-84
2023/05/10 08:53:13;;;;;;;6.15;4.57;;;13.10;99.90;;;;;;5035456;28;20124;-85
2023/05/10 08:55:40;;;;;;;7.13;5.13;;;13.10;99.90;;;;;;5019594;28;20098;-84
2023/05/10 08:58:06;;;;;;;6.88;5.60;;;13.10;99.90;;;;;;5013190;28;20047;-85
2023/05/10 09:00:32;;;;;;;6.75;5.97;;;13.20;99.90;;;;;;5028789;28;20649;-84
2023/05/10 09:02:58;;;;;;;8.98;6.10;;;13.20;99.90;;;;;;5022031;28;20320;-85
2023/05/10 09:05:25;;;;;;;7.03;5.68;;;13.40;99.90;;;;;;5019895;28;20055;-90
2023/05/10 09:07:50;;;;;;;7.22;5.40;;;13.40;99.90;;;;;;5023487;28;20041;-89
2023/05/10 09:10:16;;;;;;;7.13;5.60;;;13.40;99.90;;;;;;5016706;28;20267;-89
2023/05/10 09:12:45;;;;;;;8.13;6.43;;;13.40;99.90;;;;;;5033851;28;20044;-90
2023/05/10 09:15:11;;;;;;;6.90;5.55;;;13.50;99.90;;;;;;5027263;28;20126;-89
2023/05/10 09:17:39;;;;;;;6.72;5.93;;;13.70;99.90;;;;;;5020039;28;20048;-88
2023/05/10 09:20:06;;;;;;;6.35;5.40;;;13.60;99.90;;;;;;5023596;28;20083;-89
2023/05/10 09:22:32;;;;;;;5.65;4.93;;;13.70;99.90;;;;;;5022901;28;20124;-89
2023/05/10 09:25:05;;;;;;;5.15;4.65;;;13.60;99.90;;;;;;5017747;28;20049;-89
2023/05/10 09:27:30;;;;;;;6.80;5.28;;;13.70;99.90;;;;;;5019040;28;20285;-89
2023/05/10 09:29:56;;;;;;;7.65;5.22;;;13.80;99.90;;;;;;5014258;28;20064;-89
2023/05/10 09:32:22;;;;;;;6.50;5.32;;;13.90;99.90;;;;;;5032675;28;20041;-90
2023/05/10 09:34:49;;;;;;;7.18;6.10;;;14.10;99.90;;;;;;5022733;28;20036;-90
2023/05/10 09:37:15;;;;;;;7.90;5.55;;;13.90;99.90;;;;;;5034771;28;20045;-89
2023/05/10 09:39:41;;;;;;;8.30;5.10;;;14.00;99.90;;;;;;5026341;28;20047;-89
2023/05/10 09:42:09;;;;;;;5.85;4.93;;;13.80;99.90;;;;;;5021041;28;20118;-88
2023/05/10 09:44:35;;;;;;;5.85;4.93;;;13.80;99.90;;;;;;5025740;28;20073;-89
2023/05/10 09:47:02;;;;;;;6.55;5.72;;;13.80;99.90;;;;;;5023683;28;20049;-89
2023/05/10 09:49:31;;;;;;;9.43;6.30;;;13.80;99.90;;;;;;5038594;28;20891;-89
2023/05/10 09:52:01;;;;;;;10.88;6.25;;;13.90;99.90;;;;;;5039701;28;20778;-88
2023/05/10 09:54:27;;;;;;;7.90;6.00;;;14.00;99.90;;;;;;5021004;28;20446;-90
2023/05/10 09:56:52;;;;;;;6.47;5.68;;;14.10;99.90;;;;;;5040808;28;20120;-89
2023/05/10 09:59:18;;;;;;;8.88;5.93;;;14.10;99.90;;;;;;5022361;28;20082;-89
2023/05/10 10:01:56;;;;;;;7.25;5.60;;;14.00;99.90;;;;;;5022719;28;20564;-89
2023/05/10 10:04:21;;;;;;;9.25;5.60;;;14.20;99.90;;;;;;5033263;28;20041;-89
2023/05/10 10:07:06;;;;;;;7.43;5.63;;;14.50;99.90;;;;;;5037811;28;20033;-90
2023/05/10 10:09:34;;;;;;;7.60;5.80;;;14.80;99.90;;;;;;5023909;28;20507;-90
2023/05/10 10:12:04;;;;;;;6.43;5.25;;;14.70;99.90;;;;;;5037797;28;20037;-89
2023/05/10 10:14:30;;;;;;;7.72;5.20;;;14.60;99.90;;;;;;5031602;28;20048;-89
2023/05/10 10:16:56;;;;;;;6.28;5.07;;;14.40;99.90;;;;;;5036909;28;20442;-89
2023/05/10 10:19:22;;;;;;;7.30;5.72;;;14.30;99.90;;;;;;5037951;28;20522;-89
2023/05/10 10:21:51;;;;;;;8.20;5.60;;;14.30;99.90;;;;;;5022455;28;20096;-89
2023/05/10 10:24:16;;;;;;;7.40;5.38;;;14.40;99.90;;;;;;5032857;28;20056;-88
2023/05/10 10:26:43;;;;;;;7.55;5.97;;;14.70;99.90;;;;;;5025005;28;20141;-90
2023/05/10 10:29:44;;;;;;;7.65;5.80;;;14.80;99.90;;;;;;5039340;28;20072;-88
2023/05/10 10:32:20;;;;;;;7.78;5.82;;;15.00;99.90;;;;;;4975942;28;20050;-89
2023/05/10 10:34:46;;;;;;;8.98;6.60;;;15.20;99.90;;;;;;5012722;28;20099;-89
2023/05/10 10:37:12;;;;;;;8.65;6.57;;;15.00;99.90;;;;;;5038419;28;20045;-89
2023/05/10 10:39:38;;;;;;;7.60;4.97;;;14.70;99.90;;;;;;5023235;28;20034;-89
2023/05/10 10:42:04;;;;;;;7.97;5.75;;;14.70;99.90;;;;;;5026592;28;20041;-89
2023/05/10 10:44:34;;;;;;;7.80;5.40;;;14.50;99.90;;;;;;5033873;28;20128;-89
2023/05/10 10:47:23;;;;;;;7.45;5.57;;;14.60;99.90;;;;;;5040017;28;20064;-87
2023/05/10 10:50:05;;;;;;;6.90;5.40;;;14.50;99.90;;;;;;5036688;28;20048;-89
2023/05/10 10:52:43;;;;;;;5.85;4.97;;;14.50;99.90;;;;;;5025786;28;20045;-88
2023/05/10 10:55:14;;;;;;;6.55;4.57;;;14.60;99.90;;;;;;5035986;28;20769;-89
2023/05/10 10:57:40;;;;;;;6.65;4.95;;;14.70;99.90;;;;;;5023552;28;20053;-89
2023/05/10 11:00:32;;;;;;;6.13;4.85;;;14.80;99.90;;;;;;5025075;28;20038;-89
2023/05/10 11:03:14;;;;;;;11.43;5.68;;;15.00;99.90;;;;;;5034370;28;20045;-89
2023/05/10 11:05:40;;;;;;;8.43;5.55;;;15.20;99.90;;;;;;5036511;28;20033;-89
2023/05/10 11:08:12;;;;;;;8.73;5.32;;;15.00;99.90;;;;;;5025174;28;20440;-89
2023/05/10 11:10:38;;;;;;;7.22;5.15;;;14.90;99.90;;;;;;5036023;28;20087;-89
2023/05/10 11:13:05;;;;;;;7.38;5.90;;;15.00;99.90;;;;;;5025678;28;20056;-88
2023/05/10 11:15:36;;;;;;;8.38;5.15;;;15.10;99.90;;;;;;5037116;28;20037;-89
2023/05/10 11:18:20;;;;;;;6.20;5.28;;;15.30;99.90;;;;;;5024255;28;20045;-89
2023/05/10 11:20:59;;;;;;;7.30;5.25;;;15.20;99.90;;;;;;5041892;28;20060;-89
2023/05/10 11:23:47;;;;;;;6.35;4.70;;;15.20;99.90;;;;;;5040570;28;20056;-89
2023/05/10 11:26:14;;;;;;;7.57;4.97;;;15.10;99.90;;;;;;5036460;28;20433;-89
2023/05/10 11:28:48;;;;;;;7.65;4.55;;;15.10;99.90;;;;;;5036701;28;20484;-89
2023/05/10 11:31:14;;;;;;;5.30;4.50;;;15.00;99.90;;;;;;5036015;28;20033;-89
2023/05/10 11:33:52;;;;;;;4.43;3.90;;;14.80;99.90;;;;;;5023643;28;20037;-90
2023/05/10 11:36:20;;;;;;;4.60;4.07;;;14.70;99.90;;;;;;5026305;28;20189;-88
2023/05/10 11:38:47;;;;;;;5.68;4.15;;;14.80;99.90;;;;;;5011483;28;20172;-88
2023/05/10 11:41:13;;;;;;;6.05;4.50;;;14.70;99.90;;;;;;5035010;28;20032;-89
2023/05/10 11:43:39;;;;;;;5.13;4.30;;;14.80;99.90;;;;;;5022392;28;20123;-90
2023/05/10 11:46:06;;;;;;;6.75;4.70;;;14.70;99.90;;;;;;5025633;28;20476;-89
2023/05/10 11:48:32;;;;;;;7.72;4.65;;;14.80;99.90;;;;;;5021479;28;20408;-89
2023/05/10 11:50:58;;;;;;;6.82;5.10;;;14.60;99.90;;;;;;5023749;28;20530;-89
2023/05/10 11:53:27;;;;;;;6.57;5.38;;;14.70;99.90;;;;;;5028855;28;20186;-88
2023/05/10 11:55:55;;;;;;;6.47;4.95;;;14.80;99.90;;;;;;5023608;28;20110;-88
2023/05/10 11:58:22;;;;;;;5.65;4.57;;;14.90;99.90;;;;;;5019095;28;20041;-88
2023/05/10 12:00:48;;;;;;;7.18;5.20;;;15.00;99.90;;;;;;5022168;28;20046;-89
2023/05/10 12:03:14;;;;;;;7.68;5.05;;;15.00;99.90;;;;;;5035639;28;20499;-88
2023/05/10 12:05:41;;;;;;;6.65;4.90;;;15.00;99.90;;;;;;5021780;28;20047;-88
2023/05/10 12:08:15;;;;;;;6.90;4.93;;;14.90;99.90;;;;;;5017737;28;20091;-89
2023/05/10 12:10:41;;;;;;;6.28;5.45;;;15.10;99.90;;;;;;5031577;28;20040;-89
2023/05/10 12:13:12;;;;;;;7.78;5.53;;;15.00;99.90;;;;;;5034251;28;20091;-88
2023/05/10 12:15:42;;;;;;;;;;;14.80;99.90;;;;;;5019522;28;20310;-89
2023/05/10 12:18:10;;;;;;;7.50;5.63;;;14.90;99.90;;;;;;5036911;28;20075;-88
2023/05/10 12:20:36;;;;;;;7.65;6.15;;;15.10;99.90;;;;;;5023349;28;20068;-89
2023/05/10 12:23:03;;;;;;;8.05;5.93;;;15.10;99.90;;;;;;5017284;28;20102;-85
2023/05/10 12:25:34;;;;;;;7.85;6.20;;;15.40;99.90;;;;;;5033850;28;20053;-85
2023/05/10 12:28:03;;;;;;;12.02;6.55;;;15.40;99.90;;;;;;5015943;28;20402;-85
2023/05/10 12:30:31;;;;;;;7.78;6.30;;;15.50;99.90;;;;;;5021793;28;20139;-85
2023/05/10 12:33:03;;;;;;;11.07;7.03;;;15.60;99.90;;;;;;5019765;28;20048;-85
2023/05/10 12:35:32;;;;;;;9.88;6.80;;;15.70;99.90;;;;;;5021588;28;20105;-85
2023/05/10 12:37:58;;;;;;;9.27;6.43;;;15.70;99.90;;;;;;5029649;28;20089;-85
2023/05/10 12:40:23;;;;;;;8.73;6.32;;;15.80;99.90;;;;;;5014094;28;20088;-85
2023/05/10 12:42:52;;;;;;;9.30;6.55;;;15.70;99.90;;;;;;5018544;28;20274;-85